Archival Weather

Chicago O'Hare International

Chicago, Illinois (KORD)

Report from: Friday, December 2, 2022 4:51 PM CST
Current time: Friday, June 21, 2024 3:41 AM CDT

Current weather – Weather history – Daily summaries
Weather forecast

Temperature11.1°C (52.0°F)
Dew point1.7°C (35.1°F)
Winds 20 kts (10.3 m/s, 23 mph) South-Southwest (200°)
Wind gusts 27 kts (13.9 m/s, 31.1 mph)
Peak wind 28 kts (14.4 m/s, 32.2 mph) South (190°) at 22:29
Visibility10 mi. (16.1 km)
Clouds Ceiling: Broken clouds 3,600 ft. (1,097 m)
Overcast 25,000 ft. (7,620 m)
Altimeter29.67 in.Hg (1005 mB)
Relative humidity52 %
Density altitude-84 ft. (-25 m)
Sea-level pressure100.5 kPa (1005 mB, 29.68 in.Hg)
Remarks Automated weather observing station with precipitation discriminator
Flight conditions Visual Meteorological Conditions
Raw dataKORD 022251Z 20020G27KT 10SM BKN036 OVC250 11/02 A2967 RMK AO2 PK WND 19028/2229 SLP051 T01110017
An error has occurred. This application may no longer respond until reloaded. Reload 🗙